Huvudsida
METAR-TAF:

METAR-TAF

Flygplatser :

Sandane flygplats. Anda

Sandane, Norge

latitud: 61-50N, longitud: 006-07E, höjd: 6 m

Aktuellt väderrapport

Denna rapport gjordes för 45 minuter sedan, klockan 20:20 UTC
Vind 6 kt från nordost
Temperatur 4°C
Fuktighet 100%
Tryck 1023 hPa
Sikt 10 km eller mer
Spridda moln på en höjd av 2800 ft
Brutna moln på en höjd av 3600 ft
lätta regnskurar

METAR: ENSD 212020Z 05006KT 9999 -SHRA SCT028 BKN036 04/04 Q1023 RMK WIND 1138FT 07003KT

Tid: 22:05 (21:05 UTC)


TAF: saknas

Aktuella väderrapporter och prognoser från 4000 flygplatser (METAR- och TAF-rapporter).

De tillgängliga stationerna syns som gula och röda prickar på kartan.

För musen över prickarna för att se namnen på stationerna.

Klicka sedan för att få väderrapporter och prognoser.

För att ändra kartan: Klicka på de gröna knapparna med ett svart kors på för att zooma in; den gröna knappen med ett streck på för att zooma ut; eller på de gröna pilarna för angränsande kartor.


METAR-TAF: